LFMDLFKJ

Guest
Details From LFMD - Mandelieu
To LFKJ - Napoleon Bonaparte
Flight Number -
Tags decoded
Created
Modified
Stats Distance 129 nm / 238 km
Max Altitude 0 ft / 0 m
Waypoints 3
Social Downloads 0
Likes 0
Share

Download

Looking for another format? Having issues loading an existing format? Contact us
Advertisement - Login to hide

Notes

Requested: LFMD MERLU BOBOBA LFKJ Unmatched points: BOBOBA

Route

LFMD MERLU LFKJ

ID Type Via Altitude (ft/m) Position (lat/lon) Dist (leg/tot) Name
O LFMD APT - 0 / 0 43.54673 / 6.95310 - / 0 nm Mandelieu
MERLU FIX - 0 / 0 43.08000 / 7.79333 46 / 46 nm
O LFKJ APT - 0 / 0 41.92289 / 8.79959 82 / 128 nm Napoleon Bonaparte

Altitude Profile

Advertisement - Login to hide

LFMD

Details ICAO LFMD (CEQ)
Name Mandelieu
Region France
Timezone Europe/Paris (UTC+2.0)
Stats Elevation 12 ft / 4 m (AMSL)
Location 43.546700° 6.953100°
Runways 3
Magnetic Variation 2.278° E

METAR

LFMD 220900Z AUTO VRB02KT 9999 OVC086 18/14 Q1022 BECMG 07015G25KT

Decode

TAF

TAF LFMD 220800Z 2209/2309 01005KT 9999 FEW050 BKN100 BECMG 2210/2211 07015G25KT BECMG 2305/2307 VRB03KT

Decode

Departure Runways

ID Width Length Bearing (true/mag) Surface Threshold Overrun Markings Lighting
05 98 ft / 30 m 2,430 ft / 741 m 45.28° / 43.00° ASPHALT 295 ft / 90 m 0 ft / 0 m VISUAL
17 148 ft / 45 m 5,287 ft / 1,611 m 172.58° / 170.31° ASPHALT 689 ft / 210 m 0 ft / 0 m PREC-APP EDGE THRESHOLD REIL-OMNI
17L 164 ft / 50 m 1,872 ft / 571 m 172.60° / 170.32° GRASS 0 ft / 0 m 0 ft / 0 m NONE
23 98 ft / 30 m 2,430 ft / 741 m 225.28° / 223.01° ASPHALT 98 ft / 30 m 0 ft / 0 m VISUAL
35 148 ft / 45 m 5,287 ft / 1,611 m 352.58° / 350.31° ASPHALT 1,148 ft / 350 m 0 ft / 0 m PREC-APP EDGE THRESHOLD REIL-OMNI
35R 164 ft / 50 m 1,872 ft / 571 m 352.60° / 350.32° GRASS 0 ft / 0 m 0 ft / 0 m NONE

LFKJ

Details ICAO LFKJ (AJA)
Name Napoleon Bonaparte
Region France
Timezone Europe/Paris (UTC+2.0)
Stats Elevation 19 ft / 6 m (AMSL)
Location 41.921700° 8.801090°
Runways 1
Magnetic Variation 2.636° E

METAR

LFKJ 220900Z AUTO VRB02KT CAVOK 21/10 Q1021 NOSIG

Decode

TAF

TAF LFKJ 220800Z 2209/2309 22006KT CAVOK BECMG 2217/2220 04005KT

Decode

Destination Runways

ID Width Length Bearing (true/mag) Surface Threshold Overrun Markings Lighting
02 148 ft / 45 m 7,904 ft / 2,409 m 24.84° / 22.21° CONCRETE 0 ft / 0 m 161 ft / 49 m PREC-APP CENTERLINE EDGE THRESHOLD REIL-OMNI
20 148 ft / 45 m 7,904 ft / 2,409 m 204.85° / 202.21° CONCRETE 741 ft / 226 m 230 ft / 70 m PREC-APP CENTERLINE EDGE THRESHOLD REIL-OMNI

Approach Navaids

Runway Type Ident Frequency Range Bearing (true/mag) Slope Elevation
02 DME AC 110.30 MHz 27 nm / 50 km - - 18 ft / 5 m (AMSL)
02 OM OM - - 24.94° / 22.31 ° - 17 ft / 5 m (AMSL)
02 LOC-ILS AC 110.30 MHz 18 nm / 33 km 24.85° / 22.21 ° - 19 ft / 6 m (AMSL)
02 GS AC 110.30 MHz 10 nm / 19 km 24.85° / 22.21 ° 3.00° 19 ft / 6 m (AMSL)

Popular Alternatives